Time;durP1;ratioP1;P1;durP2;ratioP2;P2;SDS_P1;SDS_P2;PMS_P1;PMS_P2;Temp;Humidity;BMP_temperature;BMP_pressure;BME280_temperature;BME280_humidity;BME280_pressure;Samples;Min_cycle;Max_cycle;Signal;HPM_P1;HPM_P2
2022/09/18 00:00:56;;;;;;;5.40;4.00;;;;;;;;;;4988100;28;20520;-76
2022/09/18 00:03:22;;;;;;;4.68;3.78;;;;;;;;;;4977535;28;20097;-76
2022/09/18 00:05:49;;;;;;;7.72;3.88;;;;;;;;;;4977109;28;20019;-77
2022/09/18 00:08:15;;;;;;;5.40;3.70;;;;;;;;;;4980988;28;20031;-76
2022/09/18 00:10:42;;;;;;;10.80;4.10;;;;;;;;;;4997211;28;20033;-76
2022/09/18 00:13:09;;;;;;;6.45;4.00;;;;;;;;;;4993807;28;20031;-76
2022/09/18 00:15:36;;;;;;;5.28;3.97;;;;;;;;;;4990567;28;20025;-76
2022/09/18 00:18:02;;;;;;;4.80;3.60;;;;;;;;;;4978480;28;20507;-75
2022/09/18 00:20:28;;;;;;;4.85;3.80;;;;;;;;;;4993128;28;20365;-75
2022/09/18 00:22:55;;;;;;;8.20;4.22;;;;;;;;;;4982646;28;20060;-76
2022/09/18 00:25:22;;;;;;;4.75;4.22;;;;;;;;;;4982240;28;20019;-76
2022/09/18 00:27:48;;;;;;;5.55;3.85;;;;;;;;;;4976367;28;20452;-76
2022/09/18 00:30:14;;;;;;;5.65;3.60;;;;;;;;;;4981070;28;20023;-76
2022/09/18 00:32:40;;;;;;;5.15;3.80;;;;;;;;;;4981138;28;20055;-76
2022/09/18 00:35:07;;;;;;;7.05;4.00;;;;;;;;;;4976965;28;20019;-76
2022/09/18 00:37:33;;;;;;;4.18;3.47;;;;;;;;;;4975918;28;20104;-76
2022/09/18 00:39:59;;;;;;;4.88;3.65;;;;;;;;;;4987612;28;20023;-76
2022/09/18 00:42:25;;;;;;;4.80;4.00;;;;;;;;;;4979934;28;20026;-76
2022/09/18 00:44:51;;;;;;;4.97;3.40;;;;;;;;;;4978226;28;20027;-76
2022/09/18 00:47:29;;;;;;;4.22;3.25;;;;;;;;;;4975695;28;20068;-75
2022/09/18 00:49:58;;;;;;;3.85;3.25;;;;;;;;;;4980485;28;20034;-76
2022/09/18 00:52:28;;;;;;;3.90;3.17;;;;;;;;;;4990172;28;20023;-76
2022/09/18 00:55:02;;;;;;;5.18;3.47;;;;;;;;;;4959422;28;20037;-76
2022/09/18 00:57:29;;;;;;;4.70;3.67;;;;;;;;;;4976382;28;20538;-75
2022/09/18 00:59:56;;;;;;;3.65;3.25;;;;;;;;;;4977736;28;20030;-76
2022/09/18 01:02:22;;;;;;;5.13;3.67;;;;;;;;;;4976590;28;20125;-77
2022/09/18 01:04:49;;;;;;;5.13;3.20;;;;;;;;;;4993587;28;20015;-75
2022/09/18 01:07:35;;;;;;;4.15;3.40;;;;;;;;;;4985582;28;20049;-76
2022/09/18 01:10:21;;;;;;;5.30;3.40;;;;;;;;;;4978175;28;20388;-77
2022/09/18 01:12:50;;;;;;;4.82;3.72;;;;;;;;;;4976286;28;20046;-76
2022/09/18 01:15:19;;;;;;;5.78;3.53;;;;;;;;;;4990481;28;20027;-77
2022/09/18 01:18:00;;;;;;;4.82;3.55;;;;;;;;;;4979349;28;20046;-76
2022/09/18 01:20:45;;;;;;;5.30;3.60;;;;;;;;;;4994334;28;20026;-76
2022/09/18 01:23:27;;;;;;;4.45;3.50;;;;;;;;;;4979998;28;20193;-76
2022/09/18 01:26:04;;;;;;;4.35;3.13;;;;;;;;;;4995531;28;20031;-76
2022/09/18 01:28:38;;;;;;;5.57;3.30;;;;;;;;;;4992266;28;20484;-75
2022/09/18 01:31:27;;;;;;;6.65;3.88;;;;;;;;;;4981353;28;20065;-76
2022/09/18 01:34:12;;;;;;;4.05;3.38;;;;;;;;;;4983112;28;20557;-76
2022/09/18 01:36:40;;;;;;;4.18;3.20;;;;;;;;;;4988407;28;20049;-75
2022/09/18 01:39:19;;;;;;;4.40;3.53;;;;;;;;;;4993952;28;20463;-76
2022/09/18 01:41:50;;;;;;;6.22;3.15;;;;;;;;;;4980542;28;20070;-76
2022/09/18 01:44:18;;;;;;;5.90;3.42;;;;;;;;;;4979994;28;20046;-76
2022/09/18 01:46:45;;;;;;;7.15;3.17;;;;;;;;;;4987149;28;20034;-76
2022/09/18 01:49:20;;;;;;;4.28;3.20;;;;;;;;;;4993963;28;20484;-76
2022/09/18 01:51:55;;;;;;;6.60;3.20;;;;;;;;;;4970016;28;20395;-77
2022/09/18 01:54:24;;;;;;;5.10;3.22;;;;;;;;;;4963803;28;20117;-76
2022/09/18 01:56:52;;;;;;;6.93;3.00;;;;;;;;;;4986133;28;20022;-76
2022/09/18 01:59:22;;;;;;;5.10;2.92;;;;;;;;;;4980515;28;20026;-76
2022/09/18 02:01:48;;;;;;;4.43;2.83;;;;;;;;;;4981206;28;20043;-76
2022/09/18 02:04:18;;;;;;;5.70;3.10;;;;;;;;;;4981639;28;20027;-77
2022/09/18 02:07:14;;;;;;;5.22;3.13;;;;;;;;;;4992832;28;20018;-76
2022/09/18 02:09:40;;;;;;;6.35;2.97;;;;;;;;;;4970613;28;20038;-76
2022/09/18 02:12:10;;;;;;;5.18;3.05;;;;;;;;;;4962500;28;20574;-76
2022/09/18 02:14:42;;;;;;;4.47;2.80;;;;;;;;;;4983173;28;20038;-75
2022/09/18 02:17:13;;;;;;;4.10;2.75;;;;;;;;;;4979856;28;20054;-76
2022/09/18 02:19:43;;;;;;;6.65;3.20;;;;;;;;;;4982398;28;20037;-77
2022/09/18 02:22:12;;;;;;;5.28;3.25;;;;;;;;;;4982457;28;20514;-77
2022/09/18 02:24:39;;;;;;;3.67;2.80;;;;;;;;;;4991451;28;20033;-76
2022/09/18 02:27:06;;;;;;;3.40;2.40;;;;;;;;;;4997373;28;20023;-76
2022/09/18 02:29:32;;;;;;;5.47;2.80;;;;;;;;;;4984723;28;20054;-76
2022/09/18 02:31:59;;;;;;;4.32;2.50;;;;;;;;;;4999105;28;20026;-77
2022/09/18 02:34:26;;;;;;;4.78;2.75;;;;;;;;;;4998464;28;20029;-77
2022/09/18 02:36:55;;;;;;;6.40;2.90;;;;;;;;;;4991795;28;20105;-76
2022/09/18 02:39:41;;;;;;;5.18;2.50;;;;;;;;;;4990079;28;20027;-76
2022/09/18 02:42:16;;;;;;;6.05;2.97;;;;;;;;;;4993187;28;20034;-75
2022/09/18 02:44:55;;;;;;;6.38;2.90;;;;;;;;;;4982240;28;20033;-75
2022/09/18 02:47:27;;;;;;;6.25;2.70;;;;;;;;;;4978585;28;20054;-76
2022/09/18 02:50:15;;;;;;;3.22;2.58;;;;;;;;;;4982306;28;20447;-76
2022/09/18 02:52:47;;;;;;;3.22;2.38;;;;;;;;;;4979565;28;20023;-76
2022/09/18 02:55:28;;;;;;;5.90;2.78;;;;;;;;;;4980745;28;20049;-78
2022/09/18 02:58:03;;;;;;;4.30;2.72;;;;;;;;;;4984962;28;20034;-76
2022/09/18 03:00:30;;;;;;;3.72;2.65;;;;;;;;;;4990566;28;20034;-77
2022/09/18 03:02:57;;;;;;;3.70;2.50;;;;;;;;;;4990295;28;20057;-76
2022/09/18 03:05:24;;;;;;;2.95;2.50;;;;;;;;;;4980455;28;20023;-76
2022/09/18 03:07:50;;;;;;;4.25;2.47;;;;;;;;;;4978597;28;20081;-76
2022/09/18 03:10:16;;;;;;;5.50;2.55;;;;;;;;;;4962067;28;20027;-76
2022/09/18 03:12:42;;;;;;;3.67;2.63;;;;;;;;;;4978176;28;20043;-77
2022/09/18 03:15:08;;;;;;;2.53;2.22;;;;;;;;;;4990262;28;20476;-75
2022/09/18 03:17:34;;;;;;;2.50;2.30;;;;;;;;;;4989867;28;20061;-76
2022/09/18 03:20:01;;;;;;;4.60;2.70;;;;;;;;;;4986685;28;20023;-76
2022/09/18 03:22:27;;;;;;;4.07;2.78;;;;;;;;;;4992479;28;20030;-77
2022/09/18 03:24:53;;;;;;;3.58;2.65;;;;;;;;;;4997497;28;20029;-76
2022/09/18 03:27:20;;;;;;;4.30;2.70;;;;;;;;;;4992396;28;20542;-76
2022/09/18 03:29:46;;;;;;;3.53;2.55;;;;;;;;;;4990320;28;20494;-76
2022/09/18 03:32:15;;;;;;;2.70;2.50;;;;;;;;;;4981818;28;20031;-76
2022/09/18 03:34:41;;;;;;;3.63;2.53;;;;;;;;;;4981128;28;20027;-76
2022/09/18 03:37:07;;;;;;;6.05;2.80;;;;;;;;;;4992782;28;20068;-76
2022/09/18 03:39:33;;;;;;;4.13;2.58;;;;;;;;;;4993230;28;20052;-75
2022/09/18 03:42:00;;;;;;;4.35;2.40;;;;;;;;;;4977847;28;20042;-76
2022/09/18 03:44:26;;;;;;;3.22;2.67;;;;;;;;;;4979734;28;20062;-76
2022/09/18 03:46:52;;;;;;;4.45;2.45;;;;;;;;;;4977769;28;20526;-76
2022/09/18 03:49:18;;;;;;;4.82;2.80;;;;;;;;;;4979091;28;20022;-75
2022/09/18 03:51:44;;;;;;;5.18;2.58;;;;;;;;;;4985269;28;20019;-76
2022/09/18 03:54:10;;;;;;;4.60;2.65;;;;;;;;;;4982497;28;20054;-75
2022/09/18 03:56:37;;;;;;;2.55;2.30;;;;;;;;;;4991758;28;20026;-75
2022/09/18 03:59:04;;;;;;;3.05;2.53;;;;;;;;;;4979668;28;20023;-76
2022/09/18 04:01:30;;;;;;;2.65;2.38;;;;;;;;;;4994617;28;20031;-76
2022/09/18 04:03:56;;;;;;;2.83;2.42;;;;;;;;;;4986470;28;20023;-76
2022/09/18 04:06:25;;;;;;;2.80;2.40;;;;;;;;;;4995007;28;20023;-76
2022/09/18 04:08:52;;;;;;;5.35;2.50;;;;;;;;;;4987085;28;20050;-77
2022/09/18 04:11:18;;;;;;;10.82;2.50;;;;;;;;;;4977652;28;20030;-76
2022/09/18 04:13:46;;;;;;;2.53;2.33;;;;;;;;;;4995279;28;20068;-75
2022/09/18 04:16:12;;;;;;;4.43;2.63;;;;;;;;;;4977851;28;20030;-74
2022/09/18 04:18:38;;;;;;;4.50;2.50;;;;;;;;;;4977800;28;20073;-75
2022/09/18 04:21:04;;;;;;;2.85;2.40;;;;;;;;;;4992689;28;20031;-76
2022/09/18 04:23:30;;;;;;;3.78;2.60;;;;;;;;;;4977008;28;20633;-76
2022/09/18 04:25:57;;;;;;;2.72;2.42;;;;;;;;;;4982556;28;20521;-77
2022/09/18 04:28:23;;;;;;;3.80;2.67;;;;;;;;;;4991432;28;20073;-76
2022/09/18 04:30:49;;;;;;;4.40;2.80;;;;;;;;;;4986433;28;20027;-76
2022/09/18 04:33:15;;;;;;;3.70;2.40;;;;;;;;;;4998029;28;20030;-75
2022/09/18 04:35:41;;;;;;;3.20;2.50;;;;;;;;;;4990551;28;20065;-76
2022/09/18 04:38:08;;;;;;;3.88;2.40;;;;;;;;;;4993378;28;20018;-76
2022/09/18 04:40:34;;;;;;;6.45;2.80;;;;;;;;;;4977924;28;20062;-76
2022/09/18 04:43:00;;;;;;;5.13;2.65;;;;;;;;;;4981159;28;20039;-76
2022/09/18 04:45:26;;;;;;;9.50;2.80;;;;;;;;;;4993773;28;20059;-77
2022/09/18 04:47:53;;;;;;;3.22;2.40;;;;;;;;;;5000493;28;20495;-76
2022/09/18 04:50:19;;;;;;;3.78;2.53;;;;;;;;;;4990999;28;20031;-77
2022/09/18 04:52:45;;;;;;;3.50;2.30;;;;;;;;;;4995917;28;20014;-77
2022/09/18 04:55:11;;;;;;;3.65;2.50;;;;;;;;;;4996478;28;20078;-76
2022/09/18 04:57:37;;;;;;;3.80;2.65;;;;;;;;;;4999941;28;20022;-76
2022/09/18 05:00:05;;;;;;;3.15;2.47;;;;;;;;;;4980399;28;20484;-76
2022/09/18 05:02:31;;;;;;;2.65;2.30;;;;;;;;;;4991743;28;20034;-75
2022/09/18 05:04:59;;;;;;;3.95;2.15;;;;;;;;;;4986745;28;20051;-76
2022/09/18 05:07:25;;;;;;;2.55;2.33;;;;;;;;;;4960993;28;20460;-77
2022/09/18 05:09:52;;;;;;;4.10;2.40;;;;;;;;;;5003675;28;20050;-76
2022/09/18 05:12:18;;;;;;;3.25;2.50;;;;;;;;;;4980235;28;20019;-77
2022/09/18 05:14:44;;;;;;;4.18;2.40;;;;;;;;;;4989306;28;20038;-75
2022/09/18 05:17:11;;;;;;;4.95;2.35;;;;;;;;;;4996663;28;20038;-77
2022/09/18 05:19:38;;;;;;;3.10;2.40;;;;;;;;;;4983285;28;20049;-77
2022/09/18 05:22:06;;;;;;;3.28;2.10;;;;;;;;;;4993519;28;20129;-79
2022/09/18 05:29:46;;;;;;;5.63;2.47;;;;;;;;;;4884996;26;20423;-74
2022/09/18 05:32:12;;;;;;;4.68;3.33;;;;;;;;;;4984456;28;20458;-77
2022/09/18 05:34:38;;;;;;;12.45;2.75;;;;;;;;;;4981079;28;20022;-76
2022/09/18 05:37:09;;;;;;;3.85;3.00;;;;;;;;;;5003936;28;20046;-78
2022/09/18 05:39:35;;;;;;;4.22;2.60;;;;;;;;;;4991098;28;20003;-78
2022/09/18 05:42:04;;;;;;;4.60;2.67;;;;;;;;;;5009864;28;20049;-78
2022/09/18 05:44:30;;;;;;;3.00;2.70;;;;;;;;;;4980582;28;20109;-77
2022/09/18 05:46:56;;;;;;;3.97;2.80;;;;;;;;;;5002506;28;20037;-74
2022/09/18 05:49:22;;;;;;;3.80;2.90;;;;;;;;;;5011816;28;20038;-75
2022/09/18 05:51:48;;;;;;;4.32;3.00;;;;;;;;;;4998995;28;20042;-77
2022/09/18 05:54:14;;;;;;;3.50;2.70;;;;;;;;;;4997936;28;20030;-75
2022/09/18 05:56:40;;;;;;;3.47;2.60;;;;;;;;;;4977998;28;20042;-74
2022/09/18 05:59:06;;;;;;;8.02;2.88;;;;;;;;;;5007218;28;20057;-72
2022/09/18 06:01:32;;;;;;;3.75;2.83;;;;;;;;;;5019471;28;20074;-76
2022/09/18 06:04:01;;;;;;;3.33;2.83;;;;;;;;;;4991537;28;20416;-79
2022/09/18 06:09:31;;;;;;;3.20;2.88;;;;;;;;;;4987511;28;20033;-77
2022/09/18 06:11:57;;;;;;;2.97;2.78;;;;;;;;;;4967695;28;20059;-72
2022/09/18 06:14:24;;;;;;;3.58;2.97;;;;;;;;;;4985455;28;20500;-74
2022/09/18 06:16:50;;;;;;;3.08;2.88;;;;;;;;;;4984674;28;20086;-78
2022/09/18 06:19:16;;;;;;;4.28;3.17;;;;;;;;;;4973371;28;20426;-83
2022/09/18 06:21:43;;;;;;;4.65;2.63;;;;;;;;;;4958247;28;20070;-87
2022/09/18 06:24:09;;;;;;;3.03;2.80;;;;;;;;;;4971823;28;20026;-83
2022/09/18 06:26:35;;;;;;;3.00;2.70;;;;;;;;;;4958647;28;20027;-85
2022/09/18 06:29:01;;;;;;;3.38;2.80;;;;;;;;;;4974789;28;21054;-87
2022/09/18 06:31:28;;;;;;;5.93;3.30;;;;;;;;;;4975250;28;20031;-80
2022/09/18 06:33:54;;;;;;;4.70;3.20;;;;;;;;;;4972802;28;20089;-85
2022/09/18 06:36:20;;;;;;;3.28;2.90;;;;;;;;;;4975495;28;20057;-87
2022/09/18 06:38:50;;;;;;;3.10;2.85;;;;;;;;;;4973094;28;20027;-85
2022/09/18 06:41:16;;;;;;;2.88;2.67;;;;;;;;;;4961155;28;20408;-87
2022/09/18 06:43:42;;;;;;;3.95;3.08;;;;;;;;;;4975613;28;20050;-86
2022/09/18 06:46:10;;;;;;;4.10;3.00;;;;;;;;;;4974243;28;20031;-85
2022/09/18 06:48:36;;;;;;;5.65;3.10;;;;;;;;;;4977987;28;20512;-80
2022/09/18 06:51:02;;;;;;;3.90;3.00;;;;;;;;;;4974520;28;20030;-83
2022/09/18 06:53:28;;;;;;;3.42;3.13;;;;;;;;;;4972814;28;20027;-86
2022/09/18 06:55:58;;;;;;;5.32;3.67;;;;;;;;;;4974023;28;20034;-88
2022/09/18 06:58:24;;;;;;;4.00;3.60;;;;;;;;;;4958214;28;20484;-84
2022/09/18 07:00:50;;;;;;;5.28;3.70;;;;;;;;;;4972422;28;20035;-85
2022/09/18 07:03:16;;;;;;;11.82;7.65;;;;;;;;;;4954425;28;20045;-85
2022/09/18 07:05:46;;;;;;;8.00;4.93;;;;;;;;;;4985913;28;20014;-84
2022/09/18 07:08:12;;;;;;;4.90;3.88;;;;;;;;;;4976557;28;20038;-84
2022/09/18 07:10:38;;;;;;;4.55;4.00;;;;;;;;;;4955415;28;20031;-79
2022/09/18 07:13:05;;;;;;;5.38;3.50;;;;;;;;;;4973655;28;20034;-77
2022/09/18 07:15:31;;;;;;;7.32;3.75;;;;;;;;;;4971553;28;22088;-79
2022/09/18 07:17:59;;;;;;;4.10;3.70;;;;;;;;;;4973668;28;20639;-77
2022/09/18 07:20:26;;;;;;;3.47;3.17;;;;;;;;;;4973873;28;20031;-76
2022/09/18 07:23:00;;;;;;;4.15;3.40;;;;;;;;;;4973562;28;20126;-83
2022/09/18 07:25:27;;;;;;;4.57;2.97;;;;;;;;;;4959397;28;20388;-84
2022/09/18 07:27:53;;;;;;;3.45;3.15;;;;;;;;;;4956013;28;20054;-84
2022/09/18 07:30:20;;;;;;;5.18;2.97;;;;;;;;;;4955465;28;20066;-85
2022/09/18 07:32:47;;;;;;;3.30;2.67;;;;;;;;;;4970247;28;20154;-83
2022/09/18 07:35:15;;;;;;;2.70;2.50;;;;;;;;;;4974411;28;20375;-81
2022/09/18 07:37:42;;;;;;;3.50;2.70;;;;;;;;;;4965275;28;20046;-80
2022/09/18 07:40:11;;;;;;;3.75;3.45;;;;;;;;;;4973371;28;20041;-82
2022/09/18 07:42:37;;;;;;;4.07;2.90;;;;;;;;;;4968093;28;20046;-83
2022/09/18 07:45:04;;;;;;;2.88;2.60;;;;;;;;;;4973165;28;20026;-84
2022/09/18 07:47:30;;;;;;;4.47;2.67;;;;;;;;;;4955579;28;20030;-84
2022/09/18 07:49:56;;;;;;;2.80;2.50;;;;;;;;;;4971346;28;20029;-82
2022/09/18 07:52:22;;;;;;;2.80;2.53;;;;;;;;;;4969837;28;20033;-83
2022/09/18 07:54:49;;;;;;;2.78;2.50;;;;;;;;;;4955466;28;20030;-82
2022/09/18 07:57:16;;;;;;;3.17;2.50;;;;;;;;;;4955166;28;20030;-86
2022/09/18 07:59:42;;;;;;;2.85;2.30;;;;;;;;;;4973254;28;20023;-83
2022/09/18 08:02:10;;;;;;;2.50;2.30;;;;;;;;;;4974189;28;20038;-85
2022/09/18 08:04:36;;;;;;;3.00;2.60;;;;;;;;;;4957580;28;20066;-79
2022/09/18 08:07:03;;;;;;;3.30;2.42;;;;;;;;;;4977521;28;20026;-87
2022/09/18 08:09:29;;;;;;;2.90;2.40;;;;;;;;;;4975117;28;20027;-80
2022/09/18 08:11:55;;;;;;;2.60;2.40;;;;;;;;;;4975268;28;20023;-87
2022/09/18 08:14:23;;;;;;;2.75;2.55;;;;;;;;;;4976350;28;20031;-81
2022/09/18 08:16:49;;;;;;;2.60;2.40;;;;;;;;;;4979393;28;20022;-80
2022/09/18 08:19:15;;;;;;;3.00;2.70;;;;;;;;;;4957489;28;20457;-87
2022/09/18 08:21:41;;;;;;;2.47;2.28;;;;;;;;;;4986045;28;20061;-81
2022/09/18 08:24:07;;;;;;;2.78;2.50;;;;;;;;;;4977363;28;20054;-88
2022/09/18 08:26:37;;;;;;;2.92;2.60;;;;;;;;;;4972534;28;20023;-88
2022/09/18 08:29:03;;;;;;;2.78;2.58;;;;;;;;;;4972884;28;20578;-85
2022/09/18 08:31:30;;;;;;;4.57;2.38;;;;;;;;;;4973759;28;20026;-81
2022/09/18 08:33:56;;;;;;;3.15;2.60;;;;;;;;;;4983908;28;20026;-75
2022/09/18 08:36:22;;;;;;;2.13;2.00;;;;;;;;;;4973818;28;20469;-80
2022/09/18 08:38:54;;;;;;;2.78;1.85;;;;;;;;;;4989602;28;20026;-76
2022/09/18 08:41:21;;;;;;;;;;;;;;;;;;4991262;28;20027;-75
2022/09/18 08:43:51;;;;;;;2.55;1.48;;;;;;;;;;4986854;28;19910;-75
2022/09/18 08:46:20;;;;;;;2.38;1.40;;;;;;;;;;4988234;28;20034;-75
2022/09/18 08:48:55;;;;;;;1.70;1.50;;;;;;;;;;4991291;28;20023;-75
2022/09/18 08:51:21;;;;;;;1.33;1.23;;;;;;;;;;4991518;28;20018;-75
2022/09/18 08:53:49;;;;;;;1.60;1.50;;;;;;;;;;4992345;28;20031;-75
2022/09/18 08:56:22;;;;;;;1.65;1.33;;;;;;;;;;4993636;28;20103;-75
2022/09/18 08:58:57;;;;;;;1.63;1.52;;;;;;;;;;4992077;28;20041;-75
2022/09/18 09:01:43;;;;;;;1.90;1.48;;;;;;;;;;4989114;28;20050;-75
2022/09/18 09:04:15;;;;;;;2.42;1.60;;;;;;;;;;4991671;28;20030;-75
2022/09/18 09:07:02;;;;;;;2.22;1.60;;;;;;;;;;5002245;28;20031;-76
2022/09/18 09:09:48;;;;;;;2.25;1.70;;;;;;;;;;4979374;28;20022;-76
2022/09/18 09:12:21;;;;;;;8.05;1.92;;;;;;;;;;4981718;28;20082;-76
2022/09/18 09:14:50;;;;;;;5.68;1.63;;;;;;;;;;4986805;28;20106;-77
2022/09/18 09:17:19;;;;;;;5.13;1.60;;;;;;;;;;4981412;28;20027;-74
2022/09/18 09:20:09;;;;;;;3.70;1.65;;;;;;;;;;4986141;28;20030;-77
2022/09/18 09:22:42;;;;;;;2.55;1.50;;;;;;;;;;4981202;28;20404;-77
2022/09/18 09:25:33;;;;;;;2.17;1.40;;;;;;;;;;4985239;28;20038;-79
2022/09/18 09:28:22;;;;;;;3.42;1.40;;;;;;;;;;5069077;23;20090;-72
2022/09/18 09:30:53;;;;;;;5.05;1.80;;;;;;;;;;4988453;28;20104;-76
2022/09/18 09:33:35;;;;;;;3.25;1.73;;;;;;;;;;4995171;28;20030;-72
2022/09/18 09:36:11;;;;;;;2.88;1.70;;;;;;;;;;4969287;28;20038;-77
2022/09/18 09:38:40;;;;;;;2.22;1.50;;;;;;;;;;4970262;28;20031;-76
2022/09/18 09:41:15;;;;;;;1.63;1.50;;;;;;;;;;4983303;28;20061;-75
2022/09/18 09:43:46;;;;;;;2.20;1.60;;;;;;;;;;4971269;28;20062;-78
2022/09/18 09:46:31;;;;;;;2.03;1.40;;;;;;;;;;4988401;28;20034;-75
2022/09/18 09:49:04;;;;;;;3.88;1.73;;;;;;;;;;4987218;28;20081;-75
2022/09/18 09:51:48;;;;;;;2.20;1.52;;;;;;;;;;4967009;28;20054;-77
2022/09/18 09:54:14;;;;;;;6.65;1.85;;;;;;;;;;4976798;28;20030;-77
2022/09/18 09:57:01;;;;;;;2.28;1.40;;;;;;;;;;4988589;28;20035;-76
2022/09/18 09:59:30;;;;;;;2.20;1.30;;;;;;;;;;4981553;28;20027;-77
2022/09/18 10:02:02;;;;;;;4.70;1.45;;;;;;;;;;4997005;28;20035;-79
2022/09/18 10:04:44;;;;;;;2.97;1.60;;;;;;;;;;4984517;28;20038;-77
2022/09/18 10:07:10;;;;;;;2.47;1.52;;;;;;;;;;4991959;28;20157;-76
2022/09/18 10:09:55;;;;;;;2.50;1.60;;;;;;;;;;4977897;29;20038;-76
2022/09/18 10:12:32;;;;;;;1.52;1.40;;;;;;;;;;4969756;29;20027;-78
2022/09/18 10:15:05;;;;;;;19.55;2.20;;;;;;;;;;4972890;29;20083;-78
2022/09/18 10:17:34;;;;;;;2.05;1.50;;;;;;;;;;4973828;29;20023;-78
2022/09/18 10:20:00;;;;;;;1.85;1.75;;;;;;;;;;4971774;29;20079;-78
2022/09/18 10:22:28;;;;;;;2.70;1.80;;;;;;;;;;4956807;29;20054;-78
2022/09/18 10:25:11;;;;;;;2.50;1.23;;;;;;;;;;4966606;28;20103;-76
2022/09/18 10:27:38;;;;;;;1.80;1.60;;;;;;;;;;4951330;28;20268;-77
2022/09/18 10:30:13;;;;;;;2.83;1.48;;;;;;;;;;4963070;29;20034;-76
2022/09/18 10:32:40;;;;;;;2.60;1.33;;;;;;;;;;4962366;28;20024;-75
2022/09/18 10:35:25;;;;;;;1.95;1.50;;;;;;;;;;4961488;29;20035;-75
2022/09/18 10:37:52;;;;;;;2.53;1.42;;;;;;;;;;4965301;28;20098;-77
2022/09/18 10:40:29;;;;;;;3.58;1.40;;;;;;;;;;4964899;29;20023;-77
2022/09/18 10:42:56;;;;;;;1.65;1.55;;;;;;;;;;4930973;29;20043;-78
2022/09/18 10:45:24;;;;;;;2.10;1.35;;;;;;;;;;4961745;28;20027;-76
2022/09/18 10:48:04;;;;;;;4.70;1.38;;;;;;;;;;4964675;29;20030;-77
2022/09/18 10:50:30;;;;;;;1.80;1.52;;;;;;;;;;4961041;28;20061;-75
2022/09/18 10:53:14;;;;;;;2.97;1.38;;;;;;;;;;4963231;29;20114;-75
2022/09/18 10:55:48;;;;;;;2.58;1.75;;;;;;;;;;4958236;29;20113;-76
2022/09/18 10:58:14;;;;;;;1.20;1.20;;;;;;;;;;4960918;28;20082;-76
2022/09/18 11:00:44;;;;;;;2.75;1.52;;;;;;;;;;4954500;29;20556;-76
2022/09/18 11:03:21;;;;;;;3.03;1.40;;;;;;;;;;4975080;29;20039;-78
2022/09/18 11:06:01;;;;;;;17.55;11.23;;;;;;;;;;4973484;29;20026;-78
2022/09/18 11:08:34;;;;;;;4.43;2.10;;;;;;;;;;4953412;29;20036;-77
2022/09/18 11:11:02;;;;;;;3.63;1.90;;;;;;;;;;5012806;23;20051;-73
2022/09/18 11:13:53;;;;;;;1.88;1.20;;;;;;;;;;4976041;28;20027;-77
2022/09/18 11:16:29;;;;;;;1.65;1.35;;;;;;;;;;4994542;28;20049;-78
2022/09/18 11:19:13;;;;;;;1.55;1.10;;;;;;;;;;4995528;28;20029;-78
2022/09/18 11:21:51;;;;;;;1.67;1.15;;;;;;;;;;4972440;29;20038;-78
2022/09/18 11:24:30;;;;;;;3.10;1.70;;;;;;;;;;4976841;28;20511;-76
2022/09/18 11:26:59;;;;;;;3.50;1.95;;;;;;;;;;4973710;28;20038;-78
2022/09/18 11:29:30;;;;;;;3.03;2.17;;;;;;;;;;4989600;28;20027;-77
2022/09/18 11:32:03;;;;;;;1.40;1.30;;;;;;;;;;4953106;28;20047;-78
2022/09/18 11:34:39;;;;;;;1.60;1.50;;;;;;;;;;4948516;28;20066;-77
2022/09/18 11:37:06;;;;;;;2.20;1.30;;;;;;;;;;4966687;28;20011;-78
2022/09/18 11:45:27;;;;;;;1.17;1.00;;;;;;;;;;5014294;28;20094;-76
2022/09/18 11:48:03;;;;;;;1.48;1.35;;;;;;;;;;5012536;28;20085;-76
2022/09/18 11:50:39;;;;;;;2.85;1.52;;;;;;;;;;5004322;28;20065;-74
2022/09/18 11:53:23;;;;;;;2.97;1.35;;;;;;;;;;5000595;28;20026;-75
2022/09/18 11:56:11;;;;;;;3.47;1.35;;;;;;;;;;5016450;28;20468;-75
2022/09/18 11:58:42;;;;;;;1.58;1.48;;;;;;;;;;5014724;28;20007;-74
2022/09/18 12:01:11;;;;;;;1.73;1.30;;;;;;;;;;5006803;28;20030;-77
2022/09/18 12:03:44;;;;;;;1.65;1.45;;;;;;;;;;5000509;28;20558;-76
2022/09/18 12:06:19;;;;;;;1.80;1.70;;;;;;;;;;5003111;28;20030;-77
2022/09/18 12:08:58;;;;;;;1.58;1.48;;;;;;;;;;4988891;28;20034;-79
2022/09/18 12:11:46;;;;;;;2.03;1.48;;;;;;;;;;4983886;28;20045;-78
2022/09/18 12:14:12;;;;;;;3.50;1.50;;;;;;;;;;4976877;28;20031;-77
2022/09/18 12:16:42;;;;;;;1.30;1.20;;;;;;;;;;4974177;28;20069;-79
2022/09/18 12:19:28;;;;;;;5.45;1.63;;;;;;;;;;4987702;28;20555;-76
2022/09/18 12:21:58;;;;;;;2.13;1.30;;;;;;;;;;4983762;28;20026;-76
2022/09/18 12:24:24;;;;;;;5.47;2.20;;;;;;;;;;4974799;28;20027;-74
2022/09/18 12:26:53;;;;;;;2.40;1.60;;;;;;;;;;4974290;28;20067;-73
2022/09/18 12:29:25;;;;;;;1.90;1.77;;;;;;;;;;4974611;28;20030;-76
2022/09/18 12:31:57;;;;;;;3.15;1.70;;;;;;;;;;4977194;28;20050;-76
2022/09/18 12:34:23;;;;;;;2.85;1.73;;;;;;;;;;4978924;28;20039;-76
2022/09/18 12:36:55;;;;;;;1.88;1.70;;;;;;;;;;4985722;28;20147;-80
2022/09/18 12:39:21;;;;;;;1.73;1.63;;;;;;;;;;4982311;28;20019;-78
2022/09/18 12:41:53;;;;;;;3.78;1.67;;;;;;;;;;4974905;28;20047;-76
2022/09/18 12:44:31;;;;;;;1.55;1.45;;;;;;;;;;4961381;28;20488;-76
2022/09/18 12:47:09;;;;;;;3.05;1.85;;;;;;;;;;4974276;28;20027;-76
2022/09/18 12:49:35;;;;;;;4.60;2.22;;;;;;;;;;4971407;28;20511;-76
2022/09/18 12:52:01;;;;;;;3.75;2.38;;;;;;;;;;4974982;28;20101;-75
2022/09/18 12:54:37;;;;;;;3.95;2.30;;;;;;;;;;4974849;28;20023;-77
2022/09/18 12:57:24;;;;;;;4.68;1.90;;;;;;;;;;4983467;28;20035;-81
2022/09/18 13:00:11;;;;;;;5.20;2.40;;;;;;;;;;4977628;28;20047;-78
2022/09/18 13:02:56;;;;;;;2.10;1.90;;;;;;;;;;4987703;28;20031;-75
2022/09/18 13:05:26;;;;;;;2.63;2.03;;;;;;;;;;4987516;28;20030;-76
2022/09/18 13:08:03;;;;;;;2.20;1.80;;;;;;;;;;4969788;28;20109;-78
2022/09/18 13:10:49;;;;;;;63.88;3.78;;;;;;;;;;4982375;28;20075;-78
2022/09/18 13:13:44;;;;;;;13.02;2.60;;;;;;;;;;4992233;28;20043;-79
2022/09/18 13:16:32;;;;;;;5.20;2.10;;;;;;;;;;4947852;28;20102;-76
2022/09/18 13:19:04;;;;;;;4.47;1.70;;;;;;;;;;4970098;28;20468;-77
2022/09/18 13:21:37;;;;;;;5.45;1.90;;;;;;;;;;4969235;28;20030;-77
2022/09/18 13:24:04;;;;;;;1.70;1.60;;;;;;;;;;4986778;28;20027;-76
2022/09/18 13:26:41;;;;;;;2.90;1.40;;;;;;;;;;4985080;28;20031;-78
2022/09/18 13:29:29;;;;;;;3.35;1.83;;;;;;;;;;4985167;28;20026;-80
2022/09/18 13:31:55;;;;;;;5.05;1.98;;;;;;;;;;4971805;28;20030;-73
2022/09/18 13:34:22;;;;;;;4.40;1.80;;;;;;;;;;4969717;28;20174;-72
2022/09/18 13:36:48;;;;;;;3.65;2.13;;;;;;;;;;4972416;28;20038;-74
2022/09/18 13:39:23;;;;;;;1.33;1.23;;;;;;;;;;4968882;28;20062;-76
2022/09/18 13:41:51;;;;;;;3.80;1.60;;;;;;;;;;4973478;28;20514;-77
2022/09/18 13:44:19;;;;;;;3.67;1.30;;;;;;;;;;4978777;28;20030;-73
2022/09/18 13:46:46;;;;;;;3.80;1.50;;;;;;;;;;4984020;28;20033;-72
2022/09/18 13:49:32;;;;;;;1.45;1.35;;;;;;;;;;4984162;28;20041;-72
2022/09/18 13:52:17;;;;;;;2.22;1.38;;;;;;;;;;4982472;28;20073;-72
2022/09/18 13:54:59;;;;;;;1.33;1.20;;;;;;;;;;4981765;28;20064;-73
2022/09/18 13:57:29;;;;;;;2.78;1.05;;;;;;;;;;4985996;28;20495;-72
2022/09/18 14:00:08;;;;;;;1.30;1.20;;;;;;;;;;4988653;28;20124;-75
2022/09/18 14:02:34;;;;;;;2.00;1.42;;;;;;;;;;4984906;28;20177;-73
2022/09/18 14:05:04;;;;;;;2.03;1.48;;;;;;;;;;4972824;28;20019;-73
2022/09/18 14:07:31;;;;;;;1.63;1.13;;;;;;;;;;4974677;28;20035;-73
2022/09/18 14:10:01;;;;;;;2.10;1.30;;;;;;;;;;4973948;28;20026;-72
2022/09/18 14:12:28;;;;;;;1.40;1.30;;;;;;;;;;4969612;28;20026;-73
2022/09/18 14:14:57;;;;;;;1.00;1.00;;;;;;;;;;4973565;28;20027;-72
2022/09/18 14:17:27;;;;;;;3.97;1.10;;;;;;;;;;4953145;28;20033;-73
2022/09/18 14:20:06;;;;;;;3.08;1.27;;;;;;;;;;4977009;28;20054;-72
2022/09/18 14:22:36;;;;;;;1.55;1.15;;;;;;;;;;4973583;28;20049;-73
2022/09/18 14:25:06;;;;;;;3.47;1.10;;;;;;;;;;4968659;28;20015;-73
2022/09/18 14:27:35;;;;;;;1.42;1.30;;;;;;;;;;4980544;28;20034;-73
2022/09/18 14:30:12;;;;;;;2.83;1.45;;;;;;;;;;4979247;28;20061;-74
2022/09/18 14:32:39;;;;;;;2.78;1.35;;;;;;;;;;4976556;28;20023;-75
2022/09/18 14:35:21;;;;;;;7.00;1.90;;;;;;;;;;4979482;28;20058;-74
2022/09/18 14:37:47;;;;;;;3.60;1.40;;;;;;;;;;4979838;28;20029;-79
2022/09/18 14:40:19;;;;;;;9.40;2.78;;;;;;;;;;4988506;28;20051;-76
2022/09/18 14:42:47;;;;;;;1.30;1.20;;;;;;;;;;4979978;28;20050;-74
2022/09/18 14:45:13;;;;;;;3.85;1.55;;;;;;;;;;4978271;28;20029;-75
2022/09/18 14:47:40;;;;;;;1.92;1.25;;;;;;;;;;4978985;28;20023;-76
2022/09/18 14:50:28;;;;;;;2.53;1.20;;;;;;;;;;4981322;28;20029;-75
2022/09/18 14:52:55;;;;;;;1.90;1.15;;;;;;;;;;4983966;28;20134;-78
2022/09/18 14:55:41;;;;;;;1.60;1.48;;;;;;;;;;4984976;28;20477;-78
2022/09/18 14:58:15;;;;;;;6.60;1.35;;;;;;;;;;4983385;28;20023;-78
2022/09/18 15:00:42;;;;;;;2.13;1.48;;;;;;;;;;4989971;28;20066;-74
2022/09/18 15:03:18;;;;;;;2.38;1.60;;;;;;;;;;4990654;28;20045;-76
2022/09/18 15:05:54;;;;;;;2.85;1.42;;;;;;;;;;4989959;28;20007;-79
2022/09/18 15:08:24;;;;;;;4.95;1.73;;;;;;;;;;4986514;28;20074;-75
2022/09/18 15:10:52;;;;;;;6.03;1.90;;;;;;;;;;4979780;28;20022;-78
2022/09/18 15:13:20;;;;;;;4.30;1.90;;;;;;;;;;4989370;28;20046;-80
2022/09/18 15:15:47;;;;;;;5.45;2.67;;;;;;;;;;4988519;28;20023;-78
2022/09/18 15:18:22;;;;;;;247.48;45.35;;;;;;;;;;4984389;28;20007;-75